メインページ
METAR-TAF:

METAR-TAF

空港 :

Chatham Municipal Airport

チャタム, マサチューセッツ州, アメリカ合衆国

緯度: 41-41-15N, 経度: 069-59-36W, 海抜: 20m

現時点の気象観測

当レポートは20分前の06:01(UTC)に作成
北東の風 13kt、最大27ktの突風を伴う
気温 6°C
湿度 87%
気圧 1010 hPa
視程: 3.2km
高度500ftの曇り
小雨, 靄

METAR: KCQX 040601Z AUTO 04013G27KT 2SM -RA BR OVC005 06/04 A2982 RMK AO2 PK WND 04027/0553 P0001 T00610044

時間: 02:21 (06:21 UTC)


TAF: 見つかりません

4,000以上の空港の気象観測と天気予報(METAR報とTAF報)

利用可能な観測所は地図上に黄色い丸と赤い丸で示す。

丸の上にカーソルを重ねると観測所名を参照できる。

次にクリックすると気象観測と天気予報を参照できる。

マップの切り替え:黒色「×」印の緑ボタンをクリックして拡大、「-」印の緑ボタンをクリックして縮小、緑色の三角印をクリックして隣りの地図に切り替え


METAR-TAF: